Time;durP1;ratioP1;P1;durP2;ratioP2;P2;SDS_P1;SDS_P2;PMS_P1;PMS_P2;Temp;Humidity;BMP_temperature;BMP_pressure;BME280_temperature;BME280_humidity;BME280_pressure;Samples;Min_cycle;Max_cycle;Signal;HPM_P1;HPM_P2
2023/07/18 00:09:45;;;;;;;1.35;1.13;;;;;;;;;;4985545;28;20078;-80
2023/07/18 00:12:11;;;;;;;2.00;1.30;;;;;;;;;;5054668;28;20025;-80
2023/07/18 00:14:37;;;;;;;2.22;1.10;;;;;;;;;;5045218;28;20025;-84
2023/07/18 00:17:05;;;;;;;6.32;1.30;;;;;;;;;;5045867;28;20059;-84
2023/07/18 00:19:43;;;;;;;4.93;1.33;;;;;;;;;;5043986;28;20047;-84
2023/07/18 00:22:22;;;;;;;2.67;1.38;;;;;;;;;;5053122;28;20036;-80
2023/07/18 00:24:48;;;;;;;4.15;1.30;;;;;;;;;;5051394;28;20041;-80
2023/07/18 00:27:16;;;;;;;2.33;1.10;;;;;;;;;;5051742;28;20040;-80
2023/07/18 00:30:13;;;;;;;;;;;;;;;;;;;;;
2023/07/18 00:33:03;;;;;;;5.22;1.30;;;;;;;;;;5047102;28;20029;-80
2023/07/18 00:35:42;;;;;;;;;;;;;;;;;;;;;
2023/07/18 00:38:27;;;;;;;3.55;1.35;;;;;;;;;;5029492;28;20036;-79
2023/07/18 00:41:14;;;;;;;;;;;;;;;;;;;;;
2023/07/18 00:44:17;;;;;;;;;;;;;;;;;;;;;
2023/07/18 00:47:29;;;;;;;1.73;1.17;;;;;;;;;;5052118;28;20417;-80
2023/07/18 00:53:16;;;;;;;5.43;1.42;;;;;;;;;;5030073;28;20095;-83
2023/07/18 00:56:03;;;;;;;2.10;1.00;;;;;;;;;;5054669;28;20048;-83
2023/07/18 00:58:30;;;;;;;2.80;1.35;;;;;;;;;;5066513;28;20051;-79
2023/07/18 01:01:28;;;;;;;;;;;;;;;;;;;;;
2023/07/18 01:04:36;;;;;;;3.42;1.20;;;;;;;;;;5070289;28;20151;-79
2023/07/18 01:07:04;;;;;;;2.00;1.30;;;;;;;;;;5067417;28;20577;-79
2023/07/18 01:13:08;;;;;;;3.53;1.40;;;;;;;;;;5052460;28;20098;-79
2023/07/18 01:15:39;;;;;;;2.83;1.52;;;;;;;;;;5037535;28;20223;-83
2023/07/18 01:18:09;;;;;;;2.20;1.30;;;;;;;;;;5055925;28;20044;-83
2023/07/18 01:20:46;;;;;;;;;;;;;;;;;;;;;
2023/07/18 01:23:30;;;;;;;4.22;1.50;;;;;;;;;;5044881;28;20037;-79
2023/07/18 01:26:43;;;;;;;3.20;1.52;;;;;;;;;;5046744;28;20045;-79
2023/07/18 01:36:30;;;;;;;2.10;1.27;;;;;;;;;;4993425;28;20042;-79
2023/07/18 01:41:47;;;;;;;3.50;1.40;;;;;;;;;;4991665;28;20823;-80
2023/07/18 01:44:16;;;;;;;4.78;1.60;;;;;;;;;;4992825;28;20157;-83
2023/07/18 01:47:00;;;;;;;1.95;1.23;;;;;;;;;;5026430;28;20127;-83
2023/07/18 01:49:31;;;;;;;;;;;;;;;;;;5071918;28;20044;-79
2023/07/18 01:52:00;;;;;;;3.00;1.20;;;;;;;;;;5072692;28;19920;-79
2023/07/18 01:55:27;;;;;;;4.40;1.60;;;;;;;;;;5066978;28;20037;-79
2023/07/18 02:00:42;;;;;;;;;;;;;;;;;;;;;
2023/07/18 02:03:39;;;;;;;2.55;1.35;;;;;;;;;;5052080;28;20036;-79
2023/07/18 02:06:06;;;;;;;1.45;1.23;;;;;;;;;;4995531;28;20037;-79
2023/07/18 02:08:35;;;;;;;3.13;1.55;;;;;;;;;;5050607;28;20036;-79
2023/07/18 02:11:00;;;;;;;2.83;1.48;;;;;;;;;;5052423;28;20070;-79
2023/07/18 02:17:52;;;;;;;2.13;1.38;;;;;;;;;;5030014;28;20052;-79
2023/07/18 02:20:45;;;;;;;3.53;1.48;;;;;;;;;;5031189;28;20048;-79
2023/07/18 02:23:36;;;;;;;4.07;1.30;;;;;;;;;;5007280;28;20037;-79
2023/07/18 02:26:14;;;;;;;3.17;1.50;;;;;;;;;;5027668;28;20070;-79
2023/07/18 02:28:50;;;;;;;2.15;1.20;;;;;;;;;;5014344;28;20400;-84
2023/07/18 02:31:19;;;;;;;5.97;1.67;;;;;;;;;;5031647;28;20048;-84
2023/07/18 02:36:55;;;;;;;3.53;1.50;;;;;;;;;;5050464;28;20293;-79
2023/07/18 02:39:26;;;;;;;3.42;1.42;;;;;;;;;;5048767;28;20482;-79
2023/07/18 02:42:05;;;;;;;;;;;;;;;;;;;;;
2023/07/18 02:48:07;;;;;;;3.60;1.92;;;;;;;;;;5038657;28;20535;-79
2023/07/18 02:53:25;;;;;;;3.85;1.70;;;;;;;;;;5049427;28;20040;-79
2023/07/18 02:56:29;;;;;;;5.43;1.55;;;;;;;;;;5052545;28;20064;-79
2023/07/18 03:02:30;;;;;;;2.53;1.67;;;;;;;;;;4963936;28;20066;-79
2023/07/18 03:05:09;;;;;;;4.47;1.77;;;;;;;;;;5047628;28;20123;-79
2023/07/18 03:07:56;;;;;;;;;;;;;;;;;;;;;
2023/07/18 03:10:38;;;;;;;;;;;;;;;;;;;;;
2023/07/18 03:13:11;;;;;;;4.20;1.70;;;;;;;;;;5062043;28;20123;-79
2023/07/18 03:15:42;;;;;;;4.87;2.23;;;;;;;;;;5068736;28;20056;-79
2023/07/18 03:18:20;;;;;;;2.42;1.48;;;;;;;;;;5065334;28;20047;-79
2023/07/18 03:21:04;;;;;;;3.25;1.98;;;;;;;;;;5048477;28;20742;-79
2023/07/18 03:23:35;;;;;;;3.50;1.80;;;;;;;;;;5047559;28;20066;-79
2023/07/18 03:26:24;;;;;;;3.75;1.80;;;;;;;;;;5066473;28;20113;-79
2023/07/18 03:32:16;;;;;;;4.55;1.88;;;;;;;;;;5038752;28;20739;-79
2023/07/18 03:34:48;;;;;;;4.63;1.77;;;;;;;;;;5062991;28;20044;-83
2023/07/18 03:37:25;;;;;;;4.53;1.90;;;;;;;;;;5056185;28;20037;-83
2023/07/18 03:46:38;;;;;;;5.72;2.00;;;;;;;;;;4971646;28;20049;-84
2023/07/18 03:52:19;;;;;;;4.47;1.90;;;;;;;;;;4927210;29;20497;-79
2023/07/18 04:00:50;;;;;;;2.75;1.77;;;;;;;;;;5044483;28;20087;-83
2023/07/18 04:03:58;;;;;;;2.67;1.48;;;;;;;;;;5043593;28;20641;-83
2023/07/18 04:09:16;;;;;;;4.88;2.20;;;;;;;;;;5032941;28;20094;-84
2023/07/18 04:11:47;;;;;;;5.43;1.90;;;;;;;;;;5052499;28;20044;-79
2023/07/18 04:14:47;;;;;;;;;;;;;;;;;;;;;
2023/07/18 04:21:27;;;;;;;4.93;2.60;;;;;;;;;;4977560;28;20622;-79
2023/07/18 04:24:35;;;;;;;4.07;1.70;;;;;;;;;;5006438;28;20060;-79
2023/07/18 04:27:49;;;;;;;4.32;1.80;;;;;;;;;;5032747;28;20051;-79
2023/07/18 04:30:30;;;;;;;;;;;;;;;;;;;;;
2023/07/18 04:36:04;;;;;;;3.40;1.63;;;;;;;;;;5046863;28;20107;-79
2023/07/18 04:39:03;;;;;;;4.57;1.80;;;;;;;;;;5047664;28;20029;-79
2023/07/18 04:41:32;;;;;;;6.68;2.17;;;;;;;;;;5047793;28;20107;-79
2023/07/18 04:44:31;;;;;;;3.28;1.80;;;;;;;;;;5048590;28;20078;-79
2023/07/18 04:50:41;;;;;;;4.05;1.70;;;;;;;;;;5034779;28;20102;-79
2023/07/18 04:53:22;;;;;;;;;;;;;;;;;;;;;
2023/07/18 04:55:59;;;;;;;3.13;1.83;;;;;;;;;;5054078;28;20056;-79
2023/07/18 04:58:46;;;;;;;3.42;1.70;;;;;;;;;;5040015;28;20036;-79
2023/07/18 05:01:11;;;;;;;4.25;1.60;;;;;;;;;;5049362;28;20033;-79
2023/07/18 05:04:21;;;;;;;3.22;1.60;;;;;;;;;;5065121;28;20449;-79
2023/07/18 05:10:03;;;;;;;;;;;;;;;;;;;;;
2023/07/18 05:12:50;;;;;;;;;;;;;;;;;;5027113;28;20037;-83
2023/07/18 05:15:47;;;;;;;6.05;2.08;;;;;;;;;;5052671;28;20290;-84
2023/07/18 05:21:34;;;;;;;;;;;;;;;;;;;;;
2023/07/18 05:24:11;;;;;;;2.97;1.80;;;;;;;;;;5050334;28;20033;-83
2023/07/18 05:26:50;;;;;;;;;;;;;;;;;;;;;
2023/07/18 05:29:43;;;;;;;4.47;1.83;;;;;;;;;;5049290;28;20032;-79
2023/07/18 05:32:50;;;;;;;;;;;;;;;;;;;;;
2023/07/18 05:35:17;;;;;;;3.92;2.05;;;;;;;;;;5048489;28;20037;-79
2023/07/18 05:38:19;;;;;;;3.90;1.60;;;;;;;;;;5016926;28;20041;-79
2023/07/18 05:40:46;;;;;;;5.03;1.67;;;;;;;;;;5028687;28;20085;-79
2023/07/18 05:44:00;;;;;;;6.65;1.70;;;;;;;;;;5026032;28;20029;-79
2023/07/18 05:47:08;;;;;;;;;;;;;;;;;;;;;
2023/07/18 05:50:24;;;;;;;5.65;1.88;;;;;;;;;;4926715;29;20115;-83
2023/07/18 05:53:07;;;;;;;8.27;2.10;;;;;;;;;;4956283;28;20060;-83
2023/07/18 05:59:05;;;;;;;8.13;2.40;;;;;;;;;;4964150;28;20098;-84
2023/07/18 06:02:03;;;;;;;5.40;2.13;;;;;;;;;;5045477;28;20029;-83
2023/07/18 06:04:29;;;;;;;8.20;2.05;;;;;;;;;;5041796;28;20044;-83
2023/07/18 06:07:01;;;;;;;5.97;2.10;;;;;;;;;;5044641;28;20029;-83
2023/07/18 06:09:54;;;;;;;5.82;2.15;;;;;;;;;;5048300;28;20033;-84
2023/07/18 06:12:19;;;;;;;4.50;2.08;;;;;;;;;;5030616;28;20075;-83
2023/07/18 06:14:48;;;;;;;6.32;2.40;;;;;;;;;;5048788;28;20068;-83
2023/07/18 06:17:16;;;;;;;4.53;2.40;;;;;;;;;;5068821;28;20031;-84
2023/07/18 06:20:12;;;;;;;5.40;2.55;;;;;;;;;;5055717;28;20970;-80
2023/07/18 06:29:30;;;;;;;5.32;1.80;;;;;;;;;;4999426;28;20602;-79
2023/07/18 06:32:40;;;;;;;3.55;1.80;;;;;;;;;;5004580;28;20052;-79
2023/07/18 06:35:49;;;;;;;8.40;2.45;;;;;;;;;;5015386;28;20028;-79
2023/07/18 06:41:48;;;;;;;4.97;2.00;;;;;;;;;;4948201;28;20089;-80
2023/07/18 06:45:03;;;;;;;4.80;2.40;;;;;;;;;;4969609;28;20398;-80
2023/07/18 06:47:29;;;;;;;4.80;2.33;;;;;;;;;;4964417;28;20150;-79
2023/07/18 06:50:00;;;;;;;5.63;2.45;;;;;;;;;;4969820;28;20038;-80
2023/07/18 06:53:35;;;;;;;9.93;2.47;;;;;;;;;;5018842;28;20503;-80
2023/07/18 06:56:03;;;;;;;5.88;1.90;;;;;;;;;;5045781;28;20422;-80
2023/07/18 07:01:49;;;;;;;6.63;2.15;;;;;;;;;;4973899;28;20125;-79
2023/07/18 07:04:26;;;;;;;3.95;1.60;;;;;;;;;;5050354;28;20124;-80
2023/07/18 07:07:15;;;;;;;4.15;1.95;;;;;;;;;;5054307;28;20028;-80
2023/07/18 07:09:41;;;;;;;3.50;1.70;;;;;;;;;;5054873;28;20033;-79
2023/07/18 07:16:08;;;;;;;;;;;;;;;;;;;;;
2023/07/18 07:21:32;;;;;;;3.40;2.00;;;;;;;;;;4945513;29;20086;-79
2023/07/18 07:27:49;;;;;;;2.78;1.40;;;;;;;;;;4864449;29;20062;-79
2023/07/18 07:31:03;;;;;;;6.18;2.17;;;;;;;;;;4891544;29;20033;-79
2023/07/18 07:34:15;;;;;;;6.05;1.70;;;;;;;;;;4928117;28;20145;-79
2023/07/18 07:36:43;;;;;;;3.58;1.30;;;;;;;;;;4964181;28;20046;-79
2023/07/18 07:39:54;;;;;;;5.47;1.70;;;;;;;;;;4983170;28;20061;-80
2023/07/18 07:46:28;;;;;;;2.53;0.80;;;;;;;;;;5052465;28;20125;-79
2023/07/18 07:49:33;;;;;;;;;;;;;;;;;;;;;
2023/07/18 07:55:54;;;;;;;;;;;;;;;;;;;;;
2023/07/18 07:58:36;;;;;;;;;;;;;;;;;;;;;
2023/07/18 08:01:05;;;;;;;1.65;1.20;;;;;;;;;;5066998;28;20059;-80
2023/07/18 08:04:11;;;;;;;3.05;1.10;;;;;;;;;;5071511;28;20025;-80
2023/07/18 08:13:53;;;;;;;0.60;0.60;;;;;;;;;;5008249;28;20041;-80
2023/07/18 08:16:38;;;;;;;1.75;0.80;;;;;;;;;;4994424;28;20046;-80
2023/07/18 08:19:11;;;;;;;1.42;0.63;;;;;;;;;;5028555;28;20041;-80
2023/07/18 08:21:43;;;;;;;1.90;0.75;;;;;;;;;;5031173;28;20412;-80
2023/07/18 08:27:28;;;;;;;3.15;0.70;;;;;;;;;;5055251;28;20130;-80
2023/07/18 08:30:18;;;;;;;2.22;1.52;;;;;;;;;;5061531;28;20077;-79
2023/07/18 08:32:57;;;;;;;;;;;;;;;;;;;;;
2023/07/18 08:36:03;;;;;;;0.85;0.63;;;;;;;;;;5057052;28;20025;-80
2023/07/18 08:39:17;;;;;;;3.00;0.75;;;;;;;;;;5050942;28;20121;-80
2023/07/18 08:42:24;;;;;;;2.10;0.80;;;;;;;;;;5058419;28;20020;-80
2023/07/18 08:45:07;;;;;;;2.83;1.05;;;;;;;;;;5050742;28;20033;-79
2023/07/18 08:47:37;;;;;;;1.48;0.70;;;;;;;;;;5061751;28;20037;-79
2023/07/18 08:50:17;;;;;;;1.88;0.80;;;;;;;;;;5066830;28;20021;-79
2023/07/18 08:52:48;;;;;;;2.95;0.77;;;;;;;;;;5061979;28;20044;-79
2023/07/18 09:01:05;;;;;;;1.73;0.70;;;;;;;;;;5044746;28;20808;-79
2023/07/18 09:03:38;;;;;;;1.35;0.60;;;;;;;;;;5051066;28;20025;-79
2023/07/18 09:06:34;;;;;;;0.88;0.82;;;;;;;;;;5049784;28;20127;-78
2023/07/18 09:09:27;;;;;;;;;;;;;;;;;;;;;
2023/07/18 09:15:19;;;;;;;0.85;0.80;;;;;;;;;;5008688;28;20119;-83
2023/07/18 09:18:46;;;;;;;1.73;0.82;;;;;;;;;;5035687;28;20044;-82
2023/07/18 09:21:15;;;;;;;1.00;0.80;;;;;;;;;;4895986;28;20047;-79
2023/07/18 09:23:48;;;;;;;1.38;0.70;;;;;;;;;;5038676;28;20071;-78
2023/07/18 09:26:29;;;;;;;1.20;0.70;;;;;;;;;;5050954;28;20387;-79
2023/07/18 09:29:55;;;;;;;1.80;0.80;;;;;;;;;;5073676;28;20070;-79
2023/07/18 09:32:54;;;;;;;;;;;;;;;;;;;;;
2023/07/18 09:38:32;;;;;;;1.00;0.70;;;;;;;;;;4935968;28;20071;-79
2023/07/18 09:41:16;;;;;;;2.03;0.50;;;;;;;;;;4975792;28;20630;-79
2023/07/18 09:44:16;;;;;;;1.65;0.40;;;;;;;;;;4969786;28;20567;-79
2023/07/18 09:46:58;;;;;;;;;;;;;;;;;;;;;
2023/07/18 09:49:49;;;;;;;1.38;0.57;;;;;;;;;;5061603;28;20155;-78
2023/07/18 09:52:38;;;;;;;2.33;0.70;;;;;;;;;;5050603;28;20033;-78
2023/07/18 09:55:21;;;;;;;1.55;0.73;;;;;;;;;;5050711;28;20591;-77
2023/07/18 10:01:46;;;;;;;2.17;0.68;;;;;;;;;;4998781;28;20049;-82
2023/07/18 10:04:55;;;;;;;1.90;0.50;;;;;;;;;;5012667;28;20040;-78
2023/07/18 10:15:52;;;;;;;;;;;;;;;;;;;;;
2023/07/18 10:18:22;;;;;;;1.27;0.70;;;;;;;;;;4932960;28;20540;-78
2023/07/18 10:21:11;;;;;;;1.33;0.43;;;;;;;;;;4965986;28;20140;-83
2023/07/18 10:23:43;;;;;;;1.00;0.60;;;;;;;;;;4957010;28;20030;-83
2023/07/18 10:26:12;;;;;;;2.65;0.60;;;;;;;;;;4988023;28;20057;-78
2023/07/18 10:28:53;;;;;;;1.40;0.73;;;;;;;;;;5029524;28;20594;-78
2023/07/18 10:35:28;;;;;;;3.53;0.73;;;;;;;;;;5071636;28;20043;-78
2023/07/18 10:38:13;;;;;;;1.15;0.63;;;;;;;;;;5071330;28;20849;-78
2023/07/18 10:40:52;;;;;;;2.05;1.00;;;;;;;;;;5066506;28;20043;-78
2023/07/18 10:46:36;;;;;;;2.42;0.75;;;;;;;;;;5061509;28;20106;-78
2023/07/18 10:49:12;;;;;;;2.22;0.90;;;;;;;;;;5034071;28;20044;-78
2023/07/18 11:00:51;;;;;;;1.67;1.25;;;;;;;;;;5055918;28;20137;-78
2023/07/18 11:06:59;;;;;;;1.38;1.05;;;;;;;;;;5064102;28;20035;-78
2023/07/18 11:09:46;;;;;;;1.67;1.27;;;;;;;;;;5029560;28;20216;-82
2023/07/18 11:12:20;;;;;;;6.00;1.40;;;;;;;;;;5063879;28;20055;-83
2023/07/18 11:15:23;;;;;;;2.92;1.20;;;;;;;;;;5069712;28;20044;-79
2023/07/18 11:18:41;;;;;;;1.60;1.20;;;;;;;;;;5049418;28;20064;-78
2023/07/18 11:23:52;;;;;;;6.50;1.45;;;;;;;;;;5067243;28;20043;-78
2023/07/18 11:26:48;;;;;;;;;;;;;;;;;;;;;
2023/07/18 11:33:26;;;;;;;4.47;1.40;;;;;;;;;;5050409;28;20035;-82
2023/07/18 11:50:29;;;;;;;3.38;2.05;;;;;;;;;;4868537;29;20178;-79
2023/07/18 11:53:07;;;;;;;3.22;1.70;;;;;;;;;;4945819;28;20505;-79
2023/07/18 11:59:41;;;;;;;4.75;1.60;;;;;;;;;;4944432;29;20480;-79
2023/07/18 12:02:10;;;;;;;3.03;1.50;;;;;;;;;;5027019;28;20587;-79
2023/07/18 12:04:40;;;;;;;2.47;1.75;;;;;;;;;;5045567;28;20051;-82
2023/07/18 12:07:16;;;;;;;;;;;;;;;;;;;;;
2023/07/18 12:09:53;;;;;;;3.63;1.75;;;;;;;;;;5042560;28;20043;-79
2023/07/18 12:12:21;;;;;;;3.28;1.60;;;;;;;;;;5040445;28;20052;-79
2023/07/18 12:14:47;;;;;;;7.38;1.70;;;;;;;;;;5048249;28;20069;-79
2023/07/18 12:17:31;;;;;;;3.33;1.73;;;;;;;;;;5056611;28;20033;-79
2023/07/18 12:20:15;;;;;;;4.60;1.75;;;;;;;;;;5038760;28;20549;-83
2023/07/18 12:22:43;;;;;;;5.43;1.95;;;;;;;;;;5046491;28;20399;-83
2023/07/18 12:25:09;;;;;;;6.90;2.45;;;;;;;;;;5041290;28;20514;-79
2023/07/18 12:27:59;;;;;;;5.18;2.25;;;;;;;;;;5038971;28;20041;-78
2023/07/18 12:30:42;;;;;;;4.95;2.03;;;;;;;;;;5042117;28;20059;-78
2023/07/18 12:34:10;;;;;;;2.70;1.90;;;;;;;;;;5039980;28;20134;-78
2023/07/18 12:36:38;;;;;;;3.90;1.80;;;;;;;;;;5050121;28;20130;-78
2023/07/18 12:39:11;;;;;;;4.45;2.10;;;;;;;;;;5056774;28;20044;-78
2023/07/18 12:41:57;;;;;;;2.92;1.95;;;;;;;;;;5047758;28;20028;-82
2023/07/18 12:44:38;;;;;;;3.90;1.98;;;;;;;;;;5045658;28;20043;-82
2023/07/18 12:47:31;;;;;;;2.97;1.70;;;;;;;;;;5048427;28;20873;-78
2023/07/18 12:53:26;;;;;;;2.65;1.73;;;;;;;;;;5049709;28;20109;-78
2023/07/18 12:56:39;;;;;;;;;;;;;;;;;;;;;
2023/07/18 12:59:05;;;;;;;5.22;3.25;;;;;;;;;;5047240;28;21719;-82
2023/07/18 13:04:39;;;;;;;;;;;;;;;;;;;;;
2023/07/18 13:07:19;;;;;;;;;;;;;;;;;;;;;
2023/07/18 13:10:09;;;;;;;3.25;1.65;;;;;;;;;;4983990;28;20164;-78
2023/07/18 13:16:47;;;;;;;;;;;;;;;;;;;;;
2023/07/18 13:19:13;;;;;;;3.75;1.83;;;;;;;;;;4989167;28;20042;-82
2023/07/18 13:21:54;;;;;;;2.00;1.42;;;;;;;;;;4990235;28;20603;-82
2023/07/18 13:24:34;;;;;;;4.68;1.65;;;;;;;;;;5044751;28;20079;-82
2023/07/18 13:27:00;;;;;;;2.75;1.77;;;;;;;;;;5084078;28;20039;-83
2023/07/18 13:29:26;;;;;;;4.32;1.77;;;;;;;;;;5088517;28;20031;-82
2023/07/18 13:31:57;;;;;;;1.90;1.50;;;;;;;;;;5087551;28;20028;-82
2023/07/18 13:34:23;;;;;;;2.58;1.67;;;;;;;;;;5087382;28;20468;-78
2023/07/18 13:37:00;;;;;;;2.95;1.83;;;;;;;;;;5048939;28;20063;-78
2023/07/18 13:39:26;;;;;;;3.70;1.65;;;;;;;;;;5069221;28;20446;-82
2023/07/18 13:42:10;;;;;;;8.15;1.60;;;;;;;;;;5065053;28;20105;-83
2023/07/18 13:47:38;;;;;;;2.90;1.90;;;;;;;;;;5011727;28;19916;-83
2023/07/18 13:50:20;;;;;;;2.90;1.88;;;;;;;;;;5048519;28;20070;-83
2023/07/18 13:52:51;;;;;;;5.13;1.73;;;;;;;;;;5048983;28;20064;-82
2023/07/18 13:55:58;;;;;;;2.78;1.67;;;;;;;;;;5072341;28;20155;-83
2023/07/18 13:58:32;;;;;;;3.80;1.65;;;;;;;;;;5057078;28;20056;-83
2023/07/18 14:04:16;;;;;;;3.67;1.80;;;;;;;;;;4978031;28;20049;-83
2023/07/18 14:07:00;;;;;;;2.67;1.80;;;;;;;;;;4967051;28;20049;-78
2023/07/18 14:09:49;;;;;;;4.28;1.98;;;;;;;;;;5050821;28;20040;-78
2023/07/18 14:12:24;;;;;;;3.90;2.00;;;;;;;;;;5063132;28;20469;-78
2023/07/18 14:15:12;;;;;;;3.35;1.80;;;;;;;;;;5050870;28;20036;-78
2023/07/18 14:18:03;;;;;;;2.65;1.70;;;;;;;;;;5047680;28;20136;-78
2023/07/18 14:20:35;;;;;;;3.83;1.77;;;;;;;;;;5062501;28;20043;-78
2023/07/18 14:23:11;;;;;;;;;;;;;;;;;;;;;
2023/07/18 14:26:30;;;;;;;5.28;2.22;;;;;;;;;;5080580;28;20044;-78
2023/07/18 14:28:39;;;;;;;3.25;1.85;;;;;;;;;;5078031;28;20047;-78
2023/07/18 14:31:30;;;;;;;;;;;;;;;;;;;;;
2023/07/18 14:37:00;;;;;;;4.93;1.88;;;;;;;;;;5043326;28;20045;-84
2023/07/18 14:39:30;;;;;;;2.80;1.67;;;;;;;;;;5068509;28;20028;-80
2023/07/18 14:46:05;;;;;;;;;;;;;;;;;;;;;
2023/07/18 14:49:03;;;;;;;3.03;1.83;;;;;;;;;;5056306;28;20841;-80
2023/07/18 14:58:34;;;;;;;5.25;1.85;;;;;;;;;;5069981;28;20105;-78
2023/07/18 15:01:44;;;;;;;3.70;3.10;;;;;;;;;;5066585;28;20650;-79
2023/07/18 15:04:12;;;;;;;2.10;1.45;;;;;;;;;;5061827;28;20046;-78
2023/07/18 15:06:40;;;;;;;3.90;1.80;;;;;;;;;;5065742;28;20040;-78
2023/07/18 15:09:42;;;;;;;3.70;1.90;;;;;;;;;;5063978;28;20425;-78
2023/07/18 15:12:09;;;;;;;4.90;1.90;;;;;;;;;;5064762;28;20044;-79
2023/07/18 15:15:04;;;;;;;3.88;1.77;;;;;;;;;;5065215;28;20024;-78
2023/07/18 15:17:40;;;;;;;3.05;1.80;;;;;;;;;;5070721;28;20052;-82
2023/07/18 15:20:11;;;;;;;3.35;1.92;;;;;;;;;;5069532;28;20028;-78
2023/07/18 15:22:40;;;;;;;2.33;1.80;;;;;;;;;;5064464;28;20025;-78
2023/07/18 15:28:01;;;;;;;3.97;1.70;;;;;;;;;;5033904;28;20045;-78
2023/07/18 15:34:10;;;;;;;3.90;1.60;;;;;;;;;;5063449;28;20113;-78
2023/07/18 15:36:56;;;;;;;2.50;1.90;;;;;;;;;;5064591;28;20027;-78
2023/07/18 15:42:29;;;;;;;2.65;1.60;;;;;;;;;;5060586;28;20059;-78
2023/07/18 15:44:55;;;;;;;2.80;1.73;;;;;;;;;;5046715;28;20067;-78
2023/07/18 15:47:25;;;;;;;3.33;1.90;;;;;;;;;;5064470;28;20908;-78
2023/07/18 15:53:06;;;;;;;2.97;1.90;;;;;;;;;;5000039;28;20042;-78
2023/07/18 15:55:37;;;;;;;;;;;;;;;;;;5004251;28;20036;-78
2023/07/18 15:58:18;;;;;;;2.53;1.70;;;;;;;;;;5046789;28;19921;-78
2023/07/18 16:01:06;;;;;;;5.00;1.73;;;;;;;;;;5063032;28;20040;-78
2023/07/18 16:04:15;;;;;;;3.75;1.73;;;;;;;;;;5057140;28;20038;-78
2023/07/18 16:06:44;;;;;;;4.80;1.77;;;;;;;;;;5057069;28;20041;-78
2023/07/18 16:09:22;;;;;;;;;;;;;;;;;;;;;
2023/07/18 16:12:33;;;;;;;;;;;;;;;;;;;;;
2023/07/18 16:15:01;;;;;;;3.88;2.03;;;;;;;;;;5050759;28;20041;-79
2023/07/18 16:17:51;;;;;;;3.80;1.83;;;;;;;;;;5057015;28;20039;-78
2023/07/18 16:20:25;;;;;;;3.30;2.10;;;;;;;;;;5048334;28;20534;-83
2023/07/18 16:22:52;;;;;;;3.00;1.70;;;;;;;;;;5046352;28;20588;-83
2023/07/18 16:25:35;;;;;;;4.72;1.80;;;;;;;;;;5063154;28;20556;-83
2023/07/18 16:28:38;;;;;;;5.30;2.20;;;;;;;;;;5060335;28;20032;-79
2023/07/18 16:31:07;;;;;;;6.72;1.85;;;;;;;;;;5040020;28;20040;-79
2023/07/18 16:33:33;;;;;;;3.38;1.80;;;;;;;;;;5060140;28;20072;-79
2023/07/18 16:36:12;;;;;;;3.55;1.92;;;;;;;;;;5049579;28;20074;-79
2023/07/18 16:39:28;;;;;;;5.53;1.95;;;;;;;;;;5057167;28;20538;-79
2023/07/18 16:41:46;;;;;;;3.80;2.00;;;;;;;;;;5056773;28;20039;-79
2023/07/18 16:44:19;;;;;;;3.92;2.05;;;;;;;;;;5062971;28;20024;-78
2023/07/18 16:46:49;;;;;;;3.67;1.95;;;;;;;;;;5061742;28;20502;-83
2023/07/18 16:49:15;;;;;;;3.88;2.10;;;;;;;;;;5061421;28;20033;-83
2023/07/18 16:51:51;;;;;;;;;;;;;;;;;;;;;
2023/07/18 16:54:17;;;;;;;4.10;1.90;;;;;;;;;;5060057;28;20033;-79
2023/07/18 16:57:34;;;;;;;2.40;1.77;;;;;;;;;;5054349;28;20028;-79
2023/07/18 17:03:58;;;;;;;;;;;;;;;;;;;;;
2023/07/18 17:07:08;;;;;;;3.00;2.00;;;;;;;;;;5041600;28;20051;-83
2023/07/18 17:09:40;;;;;;;2.42;1.75;;;;;;;;;;5025183;28;20130;-78
2023/07/18 17:12:17;;;;;;;4.43;2.10;;;;;;;;;;5026450;28;20140;-78
2023/07/18 17:14:43;;;;;;;3.97;1.90;;;;;;;;;;5036754;28;20047;-78
2023/07/18 17:17:38;;;;;;;;;;;;;;;;;;;;;
2023/07/18 17:20:18;;;;;;;;;;;;;;;;;;;;;
2023/07/18 17:24:11;;;;;;;3.90;2.05;;;;;;;;;;5039324;28;20052;-78
2023/07/18 17:26:32;;;;;;;5.13;1.65;;;;;;;;;;5007393;28;20652;-77
2023/07/18 17:29:01;;;;;;;3.13;1.65;;;;;;;;;;5045935;28;20437;-78
2023/07/18 17:31:30;;;;;;;7.32;1.70;;;;;;;;;;5045668;28;20091;-78
2023/07/18 17:33:59;;;;;;;3.20;1.60;;;;;;;;;;5044316;28;20045;-77
2023/07/18 17:36:29;;;;;;;4.35;1.60;;;;;;;;;;5038544;28;20040;-78
2023/07/18 17:38:57;;;;;;;4.07;1.77;;;;;;;;;;5040163;28;20090;-77
2023/07/18 17:42:08;;;;;;;4.43;1.80;;;;;;;;;;5032180;28;20092;-78
2023/07/18 17:48:49;;;;;;;2.53;1.60;;;;;;;;;;5036193;28;20133;-77
2023/07/18 17:51:21;;;;;;;2.08;1.52;;;;;;;;;;5008559;28;20457;-77
2023/07/18 17:54:06;;;;;;;;;;;;;;;;;;;;;
2023/07/18 17:57:23;;;;;;;3.33;1.65;;;;;;;;;;5042272;28;20029;-78
2023/07/18 18:02:35;;;;;;;5.22;1.80;;;;;;;;;;5031837;28;20145;-78
2023/07/18 18:05:24;;;;;;;3.28;1.77;;;;;;;;;;5063623;28;20021;-78
2023/07/18 18:07:50;;;;;;;4.00;1.92;;;;;;;;;;5065042;28;20049;-78
2023/07/18 18:10:27;;;;;;;6.13;2.35;;;;;;;;;;5067169;28;20048;-81
2023/07/18 18:12:57;;;;;;;4.15;1.67;;;;;;;;;;5046519;28;20044;-78
2023/07/18 18:16:01;;;;;;;4.03;1.95;;;;;;;;;;5067623;28;20036;-78
2023/07/18 18:18:31;;;;;;;2.15;1.30;;;;;;;;;;5055415;28;20032;-78
2023/07/18 18:21:00;;;;;;;3.72;2.10;;;;;;;;;;5037653;28;20120;-78
2023/07/18 18:23:36;;;;;;;;;;;;;;;;;;;;;
2023/07/18 18:26:09;;;;;;;4.28;1.90;;;;;;;;;;5067917;28;20034;-79
2023/07/18 18:32:00;;;;;;;;;;;;;;;;;;;;;
2023/07/18 18:38:04;;;;;;;2.85;1.92;;;;;;;;;;5047019;28;20037;-78
2023/07/18 18:41:25;;;;;;;3.67;1.80;;;;;;;;;;5067298;28;20683;-78
2023/07/18 18:43:52;;;;;;;3.97;2.35;;;;;;;;;;5027439;28;20053;-80
2023/07/18 18:46:26;;;;;;;3.75;1.45;;;;;;;;;;5035294;28;20063;-79
2023/07/18 18:49:16;;;;;;;3.20;1.80;;;;;;;;;;5064640;28;20113;-79
2023/07/18 18:57:30;;;;;;;8.15;1.95;;;;;;;;;;4977514;28;21211;-77
2023/07/18 19:02:59;;;;;;;5.78;1.60;;;;;;;;;;4963373;28;20476;-77
2023/07/18 19:05:30;;;;;;;6.32;2.33;;;;;;;;;;4957064;28;20582;-78
2023/07/18 19:07:56;;;;;;;4.28;1.85;;;;;;;;;;4939061;28;20504;-77
2023/07/18 19:10:25;;;;;;;8.07;2.08;;;;;;;;;;5033142;28;20048;-77
2023/07/18 19:13:45;;;;;;;2.65;1.90;;;;;;;;;;5037655;28;20059;-77
2023/07/18 19:16:57;;;;;;;8.15;1.92;;;;;;;;;;4999899;28;20083;-77
2023/07/18 19:19:51;;;;;;;2.95;1.77;;;;;;;;;;4998007;28;20548;-77
2023/07/18 19:22:17;;;;;;;4.00;2.05;;;;;;;;;;4997664;28;21001;-77
2023/07/18 19:24:43;;;;;;;3.17;1.98;;;;;;;;;;4998832;28;20046;-77
2023/07/18 19:27:19;;;;;;;3.72;2.05;;;;;;;;;;5026158;28;20159;-77
2023/07/18 19:30:06;;;;;;;3.78;1.88;;;;;;;;;;5042533;28;20032;-77
2023/07/18 19:32:34;;;;;;;5.20;2.40;;;;;;;;;;5028117;28;20052;-77
2023/07/18 19:35:35;;;;;;;4.22;1.98;;;;;;;;;;5040477;28;20056;-77
2023/07/18 19:38:08;;;;;;;6.90;1.90;;;;;;;;;;5042662;28;20071;-77
2023/07/18 19:40:45;;;;;;;3.67;1.90;;;;;;;;;;5020876;28;20041;-78
2023/07/18 19:43:12;;;;;;;6.20;1.70;;;;;;;;;;5024852;28;20268;-77
2023/07/18 19:45:43;;;;;;;4.65;2.17;;;;;;;;;;5039058;28;20041;-77
2023/07/18 19:48:51;;;;;;;3.83;1.80;;;;;;;;;;5026887;28;20167;-77
2023/07/18 19:55:04;;;;;;;10.13;1.90;;;;;;;;;;4983724;28;20046;-77
2023/07/18 19:58:17;;;;;;;6.30;2.08;;;;;;;;;;4978590;28;20038;-77
2023/07/18 20:01:06;;;;;;;7.60;1.90;;;;;;;;;;4974185;28;20046;-76
2023/07/18 20:03:46;;;;;;;4.68;2.17;;;;;;;;;;4967417;28;20538;-77
2023/07/18 20:06:18;;;;;;;5.05;2.38;;;;;;;;;;5009338;28;20051;-77
2023/07/18 20:08:43;;;;;;;5.93;1.70;;;;;;;;;;5044774;28;20102;-77
2023/07/18 20:11:12;;;;;;;7.97;1.98;;;;;;;;;;5044522;28;20091;-77
2023/07/18 20:16:34;;;;;;;3.50;1.85;;;;;;;;;;5003641;28;20044;-77
2023/07/18 20:19:02;;;;;;;4.55;1.90;;;;;;;;;;5039506;28;20069;-77
2023/07/18 20:21:54;;;;;;;7.45;1.90;;;;;;;;;;5046613;28;20037;-77
2023/07/18 20:24:52;;;;;;;5.82;1.90;;;;;;;;;;5043442;28;20099;-77
2023/07/18 20:27:21;;;;;;;3.30;1.90;;;;;;;;;;5034158;28;20176;-77
2023/07/18 20:30:01;;;;;;;2.78;1.67;;;;;;;;;;5044568;28;20041;-76
2023/07/18 20:32:35;;;;;;;4.75;1.95;;;;;;;;;;5043497;28;20036;-76
2023/07/18 20:38:01;;;;;;;3.78;1.90;;;;;;;;;;5040052;28;20497;-77
2023/07/18 20:47:00;;;;;;;5.13;2.15;;;;;;;;;;4983917;28;20045;-76
2023/07/18 20:49:38;;;;;;;2.47;1.70;;;;;;;;;;4981940;28;20038;-77
2023/07/18 20:52:07;;;;;;;4.82;1.95;;;;;;;;;;4965297;28;20043;-77
2023/07/18 20:54:36;;;;;;;7.97;2.40;;;;;;;;;;5011288;28;20215;-76
2023/07/18 20:57:11;;;;;;;3.80;1.85;;;;;;;;;;5043419;28;20033;-76
2023/07/18 20:59:45;;;;;;;6.90;2.45;;;;;;;;;;5059565;28;20150;-77
2023/07/18 21:02:39;;;;;;;4.60;2.33;;;;;;;;;;5068226;28;20048;-76
2023/07/18 21:05:08;;;;;;;6.10;1.80;;;;;;;;;;5048412;28;20047;-76
2023/07/18 21:07:34;;;;;;;13.80;2.22;;;;;;;;;;5046535;28;20036;-77
2023/07/18 21:10:10;;;;;;;;;;;;;;;;;;;;;
2023/07/18 21:13:29;;;;;;;3.95;2.35;;;;;;;;;;5067158;28;20040;-77
2023/07/18 21:15:35;;;;;;;7.82;1.80;;;;;;;;;;5050523;28;20174;-76
2023/07/18 21:21:14;;;;;;;6.40;2.05;;;;;;;;;;4986065;28;20038;-77
2023/07/18 21:24:14;;;;;;;;;;;;;;;;;;;;;
2023/07/18 21:30:57;;;;;;;4.70;2.25;;;;;;;;;;5026261;28;20071;-77
2023/07/18 21:33:28;;;;;;;5.30;1.92;;;;;;;;;;5052799;28;20045;-77
2023/07/18 21:36:08;;;;;;;5.45;2.22;;;;;;;;;;5053947;28;20127;-77
2023/07/18 21:39:25;;;;;;;4.53;2.50;;;;;;;;;;5023135;28;20138;-77
2023/07/18 21:42:08;;;;;;;3.35;1.88;;;;;;;;;;5036393;28;20021;-77
2023/07/18 21:44:46;;;;;;;3.83;1.70;;;;;;;;;;5024370;28;20124;-77
2023/07/18 21:47:18;;;;;;;5.72;1.90;;;;;;;;;;5038014;28;20021;-77